BOE1Z EKCH-EGLL
Flight info
| Callsign | BOE1Z |
|---|---|
| Flight time | 1h 34m |
| Altitude | 38000 |
| Route | LANGO DCT DEMIR N872 PAM L980 IDRID M40 SABER |
| Aircraft | B744/H-SDE3FGHIM1M2RWXY/LB1 |
Departure
| Time | 2026-05-04 22:53 |
|---|---|
| Airport | Copenhagen Kastrup Airport (EKCH) |
Arrival
| Time | 2026-05-05 00:27 |
|---|---|
| Airport | London Heathrow Airport (EGLL) |
| Time | Latitude | Longitude | Altitude | Speed | Heading |
|---|---|---|---|---|---|
| 2026-05-04 22:32 | 55.62740 | 12.65763 | 21 ft | 0 kts | 270° |
| 2026-05-04 22:40 | 55.62739 | 12.65780 | 21 ft | 2 kts | 284° |
| 2026-05-04 22:40 | 55.62734 | 12.65805 | 21 ft | 2 kts | 299° |
| 2026-05-04 22:40 | 55.62726 | 12.65826 | 21 ft | 2 kts | 317° |
| 2026-05-04 22:40 | 55.62714 | 12.65841 | 21 ft | 2 kts | 334° |
| 2026-05-04 22:41 | 55.62701 | 12.65850 | 21 ft | 2 kts | 351° |
| 2026-05-04 22:41 | 55.62687 | 12.65851 | 22 ft | 2 kts | 1° |
| 2026-05-04 22:41 | 55.62673 | 12.65851 | 22 ft | 0 kts | 359° |
| 2026-05-04 22:41 | 55.62678 | 12.65851 | 22 ft | 3 kts | 2° |
| 2026-05-04 22:42 | 55.62704 | 12.65873 | 21 ft | 4 kts | 43° |
| 2026-05-04 22:42 | 55.62718 | 12.65919 | 21 ft | 4 kts | 80° |
| 2026-05-04 22:42 | 55.62712 | 12.65970 | 22 ft | 4 kts | 117° |
| 2026-05-04 22:42 | 55.62691 | 12.66013 | 22 ft | 3 kts | 133° |
| 2026-05-04 22:43 | 55.62685 | 12.66025 | 22 ft | 0 kts | 132° |
| 2026-05-04 22:44 | 55.62685 | 12.66026 | 22 ft | 0 kts | 132° |
| 2026-05-04 22:44 | 55.62664 | 12.66066 | 22 ft | 8 kts | 132° |
| 2026-05-04 22:45 | 55.62604 | 12.66136 | 22 ft | 13 kts | 173° |
| 2026-05-04 22:45 | 55.62403 | 12.66135 | 20 ft | 16 kts | 224° |
| 2026-05-04 22:45 | 55.62324 | 12.65994 | 19 ft | 15 kts | 231° |
| 2026-05-04 22:46 | 55.62298 | 12.65827 | 19 ft | 13 kts | 268° |
| 2026-05-04 22:46 | 55.62295 | 12.65692 | 21 ft | 8 kts | 268° |
| 2026-05-04 22:46 | 55.62294 | 12.65576 | 21 ft | 11 kts | 270° |
| 2026-05-04 22:46 | 55.62295 | 12.65388 | 21 ft | 18 kts | 271° |
| 2026-05-04 22:47 | 55.62289 | 12.65172 | 21 ft | 15 kts | 251° |
| 2026-05-04 22:47 | 55.62286 | 12.65021 | 21 ft | 10 kts | 304° |
| 2026-05-04 22:47 | 55.62325 | 12.64918 | 20 ft | 10 kts | 304° |
| 2026-05-04 22:47 | 55.62337 | 12.64778 | 19 ft | 14 kts | 256° |
| 2026-05-04 22:48 | 55.62294 | 12.64587 | 19 ft | 19 kts | 248° |
| 2026-05-04 22:48 | 55.62214 | 12.64362 | 19 ft | 24 kts | 214° |
| 2026-05-04 22:48 | 55.62060 | 12.64215 | 20 ft | 23 kts | 206° |
| 2026-05-04 22:48 | 55.61965 | 12.64138 | 22 ft | 10 kts | 204° |
| 2026-05-04 22:49 | 55.61886 | 12.64077 | 23 ft | 14 kts | 197° |
| 2026-05-04 22:49 | 55.61804 | 12.64072 | 24 ft | 0 kts | 175° |
| 2026-05-04 22:49 | 55.61804 | 12.64073 | 24 ft | 0 kts | 175° |
| 2026-05-04 22:50 | 55.61792 | 12.64075 | 24 ft | 4 kts | 175° |
| 2026-05-04 22:51 | 55.61748 | 12.64081 | 24 ft | 8 kts | 175° |
| 2026-05-04 22:51 | 55.61693 | 12.64088 | 24 ft | 7 kts | 185° |
| 2026-05-04 22:51 | 55.61650 | 12.64066 | 24 ft | 5 kts | 199° |
| 2026-05-04 22:51 | 55.61628 | 12.64050 | 24 ft | 2 kts | 213° |
| 2026-05-04 22:52 | 55.61624 | 12.64045 | 25 ft | 0 kts | 216° |
| 2026-05-04 22:52 | 55.61585 | 12.63996 | 24 ft | 17 kts | 216° |
| 2026-05-04 22:52 | 55.61417 | 12.63744 | 24 ft | 49 kts | 223° |
| 2026-05-04 22:52 | 55.61041 | 12.63148 | 23 ft | 98 kts | 218° |
| 2026-05-04 22:53 | 55.60390 | 12.62154 | 19 ft | 146 kts | 223° |
| 2026-05-04 22:53 | 55.59541 | 12.60803 | 63 ft | 179 kts | 223° |
| 2026-05-04 22:53 | 55.58577 | 12.59336 | 446 ft | 186 kts | 224° |
| 2026-05-04 22:53 | 55.57590 | 12.57837 | 865 ft | 194 kts | 223° |
| 2026-05-04 22:54 | 55.56513 | 12.56242 | 850 ft | 207 kts | 222° |
| 2026-05-04 22:54 | 55.55418 | 12.54495 | 799 ft | 213 kts | 228° |
| 2026-05-04 22:54 | 55.54396 | 12.52693 | 1253 ft | 211 kts | 238° |
| 2026-05-04 22:54 | 55.53722 | 12.50416 | 1752 ft | 216 kts | 249° |
| 2026-05-04 22:55 | 55.53054 | 12.47948 | 2163 ft | 224 kts | 246° |
| 2026-05-04 22:55 | 55.52340 | 12.45523 | 2614 ft | 228 kts | 245° |
| 2026-05-04 22:55 | 55.51591 | 12.43048 | 3114 ft | 234 kts | 244° |
| 2026-05-04 22:55 | 55.50789 | 12.40473 | 3898 ft | 242 kts | 243° |
| 2026-05-04 22:56 | 55.49981 | 12.37958 | 4875 ft | 241 kts | 243° |
| 2026-05-04 22:56 | 55.49141 | 12.35391 | 5677 ft | 249 kts | 242° |
| 2026-05-04 22:56 | 55.48248 | 12.32699 | 5919 ft | 258 kts | 241° |
| 2026-05-04 22:56 | 55.47333 | 12.29986 | 5960 ft | 259 kts | 241° |
| 2026-05-04 22:57 | 55.46413 | 12.27289 | 5953 ft | 257 kts | 240° |
| 2026-05-04 22:57 | 55.45496 | 12.24625 | 5944 ft | 256 kts | 240° |
| 2026-05-04 22:57 | 55.44561 | 12.21927 | 5937 ft | 255 kts | 240° |
| 2026-05-04 22:57 | 55.43644 | 12.19292 | 5931 ft | 255 kts | 240° |
| 2026-05-04 22:58 | 55.42707 | 12.16612 | 5935 ft | 255 kts | 240° |
| 2026-05-04 22:58 | 55.41775 | 12.13966 | 5939 ft | 255 kts | 240° |
| 2026-05-04 22:58 | 55.40849 | 12.11345 | 5936 ft | 255 kts | 240° |
| 2026-05-04 22:58 | 55.39917 | 12.08700 | 5944 ft | 256 kts | 240° |
| 2026-05-04 22:59 | 55.38976 | 12.06040 | 5947 ft | 256 kts | 240° |
| 2026-05-04 22:59 | 55.38029 | 12.03376 | 5944 ft | 255 kts | 240° |
| 2026-05-04 22:59 | 55.37106 | 12.00776 | 5943 ft | 254 kts | 240° |
| 2026-05-04 22:59 | 55.36165 | 11.98128 | 5940 ft | 255 kts | 240° |
| 2026-05-04 23:00 | 55.35229 | 11.95506 | 5940 ft | 255 kts | 240° |
| 2026-05-04 23:00 | 55.34289 | 11.92874 | 5943 ft | 255 kts | 240° |
| 2026-05-04 23:00 | 55.33333 | 11.90213 | 5942 ft | 255 kts | 240° |
| 2026-05-04 23:00 | 55.32389 | 11.87590 | 5943 ft | 256 kts | 240° |
| 2026-05-04 23:01 | 55.31440 | 11.84957 | 5945 ft | 256 kts | 240° |
| 2026-05-04 23:01 | 55.30492 | 11.82324 | 5942 ft | 256 kts | 240° |
| 2026-05-04 23:01 | 55.29540 | 11.79669 | 5940 ft | 256 kts | 240° |
| 2026-05-04 23:01 | 55.28598 | 11.77037 | 5941 ft | 257 kts | 240° |
| 2026-05-04 23:02 | 55.27649 | 11.74387 | 5944 ft | 257 kts | 240° |
| 2026-05-04 23:02 | 55.26707 | 11.71758 | 5947 ft | 256 kts | 240° |
| 2026-05-04 23:02 | 55.25762 | 11.69120 | 5943 ft | 256 kts | 240° |
| 2026-05-04 23:02 | 55.24813 | 11.66464 | 5940 ft | 256 kts | 239° |
| 2026-05-04 23:03 | 55.23847 | 11.63870 | 5941 ft | 256 kts | 239° |
| 2026-05-04 23:03 | 55.22883 | 11.61268 | 5946 ft | 256 kts | 239° |
| 2026-05-04 23:03 | 55.21913 | 11.58649 | 5942 ft | 256 kts | 239° |
| 2026-05-04 23:03 | 55.20953 | 11.56060 | 5941 ft | 256 kts | 239° |
| 2026-05-04 23:04 | 55.19986 | 11.53454 | 5942 ft | 256 kts | 239° |
| 2026-05-04 23:04 | 55.19010 | 11.50829 | 5943 ft | 256 kts | 239° |
| 2026-05-04 23:04 | 55.18045 | 11.48229 | 5944 ft | 256 kts | 239° |
| 2026-05-04 23:04 | 55.17076 | 11.45620 | 5948 ft | 256 kts | 239° |
| 2026-05-04 23:05 | 55.16107 | 11.43014 | 5949 ft | 256 kts | 239° |
| 2026-05-04 23:05 | 55.15142 | 11.40414 | 5951 ft | 256 kts | 239° |
| 2026-05-04 23:05 | 55.14167 | 11.37790 | 5956 ft | 256 kts | 239° |
| 2026-05-04 23:05 | 55.13192 | 11.35171 | 5994 ft | 268 kts | 239° |
| 2026-05-04 23:06 | 55.12151 | 11.32373 | 6659 ft | 278 kts | 238° |
| 2026-05-04 23:06 | 55.11105 | 11.29575 | 7616 ft | 278 kts | 238° |
| 2026-05-04 23:06 | 55.10060 | 11.26791 | 8492 ft | 280 kts | 238° |
| 2026-05-04 23:06 | 55.09000 | 11.23977 | 9385 ft | 280 kts | 238° |
| 2026-05-04 23:07 | 55.07935 | 11.21149 | 10208 ft | 281 kts | 238° |
| 2026-05-04 23:07 | 55.06869 | 11.18321 | 11011 ft | 282 kts | 239° |
| 2026-05-04 23:07 | 55.05800 | 11.15472 | 11755 ft | 284 kts | 239° |
| 2026-05-04 23:07 | 55.04731 | 11.12621 | 12451 ft | 287 kts | 238° |
| 2026-05-04 23:08 | 55.03633 | 11.09696 | 13127 ft | 290 kts | 238° |
| 2026-05-04 23:08 | 55.02533 | 11.06775 | 13767 ft | 293 kts | 238° |
| 2026-05-04 23:08 | 55.01416 | 11.03820 | 14380 ft | 297 kts | 238° |
| 2026-05-04 23:08 | 55.00274 | 11.00797 | 14959 ft | 302 kts | 238° |
| 2026-05-04 23:09 | 54.99121 | 10.97740 | 15493 ft | 307 kts | 238° |
| 2026-05-04 23:09 | 54.97933 | 10.94596 | 16000 ft | 313 kts | 238° |
| 2026-05-04 23:09 | 54.96737 | 10.91438 | 16562 ft | 317 kts | 238° |
| 2026-05-04 23:09 | 54.95541 | 10.88267 | 17132 ft | 319 kts | 238° |
| 2026-05-04 23:10 | 54.94501 | 10.84832 | 17647 ft | 321 kts | 252° |
| 2026-05-04 23:10 | 54.94052 | 10.81052 | 18178 ft | 323 kts | 261° |
| 2026-05-04 23:10 | 54.93687 | 10.77231 | 18719 ft | 325 kts | 259° |
| 2026-05-04 23:10 | 54.93275 | 10.73374 | 19251 ft | 327 kts | 259° |
| 2026-05-04 23:11 | 54.92870 | 10.69486 | 19786 ft | 329 kts | 259° |
| 2026-05-04 23:11 | 54.92449 | 10.65537 | 20342 ft | 334 kts | 259° |
| 2026-05-04 23:11 | 54.92028 | 10.61570 | 21125 ft | 341 kts | 259° |
| 2026-05-04 23:11 | 54.91604 | 10.57562 | 22070 ft | 342 kts | 259° |
| 2026-05-04 23:12 | 54.91174 | 10.53517 | 22903 ft | 345 kts | 259° |
| 2026-05-04 23:12 | 54.90740 | 10.49428 | 23721 ft | 347 kts | 259° |
| 2026-05-04 23:12 | 54.90301 | 10.45344 | 24539 ft | 349 kts | 258° |
| 2026-05-04 23:12 | 54.89847 | 10.41188 | 25230 ft | 354 kts | 259° |
| 2026-05-04 23:13 | 54.89393 | 10.36994 | 26007 ft | 357 kts | 259° |
| 2026-05-04 23:13 | 54.88936 | 10.32772 | 26694 ft | 361 kts | 258° |
| 2026-05-04 23:13 | 54.88460 | 10.28457 | 27408 ft | 364 kts | 258° |
| 2026-05-04 23:13 | 54.87987 | 10.24174 | 28105 ft | 367 kts | 258° |
| 2026-05-04 23:14 | 54.87510 | 10.19815 | 28763 ft | 370 kts | 258° |
| 2026-05-04 23:14 | 54.87029 | 10.15457 | 29424 ft | 372 kts | 258° |
| 2026-05-04 23:14 | 54.86543 | 10.11057 | 30081 ft | 373 kts | 258° |
| 2026-05-04 23:14 | 54.86061 | 10.06677 | 30690 ft | 375 kts | 258° |
| 2026-05-04 23:15 | 54.85574 | 10.02264 | 31196 ft | 378 kts | 258° |
| 2026-05-04 23:15 | 54.85065 | 9.97733 | 31634 ft | 383 kts | 258° |
| 2026-05-04 23:15 | 54.84547 | 9.93202 | 32009 ft | 388 kts | 258° |
| 2026-05-04 23:15 | 54.84013 | 9.88608 | 32321 ft | 394 kts | 256° |
| 2026-05-04 23:16 | 54.83005 | 9.84147 | 32578 ft | 400 kts | 239° |
| 2026-05-04 23:16 | 54.81434 | 9.80222 | 32938 ft | 405 kts | 236° |
| 2026-05-04 23:16 | 54.79803 | 9.76191 | 33311 ft | 407 kts | 237° |
| 2026-05-04 23:16 | 54.78193 | 9.72164 | 33687 ft | 410 kts | 236° |
| 2026-05-04 23:17 | 54.76574 | 9.68193 | 34048 ft | 412 kts | 236° |
| 2026-05-04 23:17 | 54.74929 | 9.64132 | 34381 ft | 415 kts | 236° |
| 2026-05-04 23:17 | 54.73234 | 9.60013 | 34678 ft | 418 kts | 236° |
| 2026-05-04 23:17 | 54.71557 | 9.55940 | 34916 ft | 422 kts | 236° |
| 2026-05-04 23:18 | 54.69848 | 9.51799 | 35118 ft | 426 kts | 236° |
| 2026-05-04 23:18 | 54.68135 | 9.47630 | 35323 ft | 429 kts | 236° |
| 2026-05-04 23:18 | 54.66406 | 9.43439 | 35538 ft | 432 kts | 236° |
| 2026-05-04 23:18 | 54.64668 | 9.39199 | 35754 ft | 434 kts | 236° |
| 2026-05-04 23:19 | 54.62935 | 9.35018 | 35916 ft | 436 kts | 236° |
| 2026-05-04 23:19 | 54.61148 | 9.30766 | 36092 ft | 439 kts | 235° |
| 2026-05-04 23:19 | 54.59385 | 9.26532 | 36259 ft | 441 kts | 235° |
| 2026-05-04 23:19 | 54.57596 | 9.22261 | 36439 ft | 442 kts | 235° |
| 2026-05-04 23:20 | 54.55799 | 9.17975 | 36668 ft | 444 kts | 235° |
| 2026-05-04 23:20 | 54.53991 | 9.13656 | 36843 ft | 442 kts | 235° |
| 2026-05-04 23:20 | 54.50428 | 9.05194 | 36945 ft | 437 kts | 235° |
| 2026-05-04 23:21 | 54.46879 | 8.96798 | 36955 ft | 436 kts | 235° |
| 2026-05-04 23:21 | 54.43331 | 8.88410 | 36964 ft | 436 kts | 235° |
| 2026-05-04 23:22 | 54.39778 | 8.80052 | 36967 ft | 435 kts | 235° |
| 2026-05-04 23:22 | 54.36208 | 8.71681 | 36970 ft | 435 kts | 234° |
| 2026-05-04 23:23 | 54.32661 | 8.63385 | 36973 ft | 435 kts | 234° |
| 2026-05-04 23:23 | 54.29075 | 8.55039 | 36981 ft | 435 kts | 234° |
| 2026-05-04 23:24 | 54.25447 | 8.46606 | 37014 ft | 447 kts | 234° |
| 2026-05-04 23:24 | 54.21636 | 8.38352 | 36923 ft | 451 kts | 225° |
| 2026-05-04 23:25 | 54.19319 | 8.34711 | 37042 ft | 455 kts | 224° |
| 2026-05-04 23:25 | 54.17013 | 8.30978 | 37246 ft | 456 kts | 224° |
| 2026-05-04 23:25 | 54.14748 | 8.27306 | 37439 ft | 457 kts | 224° |
| 2026-05-04 23:25 | 54.12440 | 8.23574 | 37664 ft | 459 kts | 224° |
| 2026-05-04 23:26 | 54.10150 | 8.19845 | 37857 ft | 462 kts | 224° |
| 2026-05-04 23:26 | 54.07816 | 8.16053 | 37965 ft | 466 kts | 224° |
| 2026-05-04 23:26 | 54.03090 | 8.08451 | 38044 ft | 474 kts | 224° |
| 2026-05-04 23:27 | 53.98273 | 8.00711 | 38020 ft | 480 kts | 224° |
| 2026-05-04 23:27 | 53.93431 | 7.92975 | 37995 ft | 480 kts | 224° |
| 2026-05-04 23:28 | 53.88613 | 7.85294 | 37982 ft | 478 kts | 224° |
| 2026-05-04 23:28 | 53.83792 | 7.77630 | 37974 ft | 476 kts | 224° |
| 2026-05-04 23:29 | 53.78956 | 7.69969 | 37980 ft | 477 kts | 224° |
| 2026-05-04 23:29 | 53.74149 | 7.62380 | 37981 ft | 478 kts | 224° |
| 2026-05-04 23:30 | 53.69292 | 7.54737 | 37981 ft | 478 kts | 224° |
| 2026-05-04 23:30 | 53.64417 | 7.47085 | 37981 ft | 478 kts | 224° |
| 2026-05-04 23:31 | 53.59561 | 7.39497 | 37972 ft | 479 kts | 224° |
| 2026-05-04 23:31 | 53.54682 | 7.31897 | 37977 ft | 479 kts | 223° |
| 2026-05-04 23:32 | 53.49783 | 7.24287 | 37972 ft | 479 kts | 223° |
| 2026-05-04 23:32 | 53.44890 | 7.16708 | 37986 ft | 479 kts | 223° |
| 2026-05-04 23:33 | 53.39987 | 7.09154 | 37981 ft | 479 kts | 223° |
| 2026-05-04 23:33 | 53.35086 | 7.01603 | 37981 ft | 479 kts | 223° |
| 2026-05-04 23:34 | 53.30516 | 6.93466 | 37985 ft | 478 kts | 230° |
| 2026-05-04 23:34 | 53.26121 | 6.85092 | 37991 ft | 479 kts | 229° |
| 2026-05-04 23:35 | 53.21738 | 6.76775 | 37986 ft | 480 kts | 229° |
| 2026-05-04 23:35 | 53.17330 | 6.68417 | 37980 ft | 480 kts | 229° |
| 2026-05-04 23:36 | 53.12993 | 6.59972 | 37987 ft | 480 kts | 230° |
| 2026-05-04 23:36 | 53.08640 | 6.51496 | 37991 ft | 481 kts | 230° |
| 2026-05-04 23:37 | 53.04290 | 6.43046 | 37984 ft | 481 kts | 230° |
| 2026-05-04 23:37 | 52.99945 | 6.34621 | 37986 ft | 481 kts | 229° |
| 2026-05-04 23:38 | 52.95587 | 6.26208 | 37978 ft | 482 kts | 229° |
| 2026-05-04 23:38 | 52.91185 | 6.17722 | 37978 ft | 482 kts | 229° |
| 2026-05-04 23:39 | 52.86809 | 6.09321 | 37980 ft | 483 kts | 229° |
| 2026-05-04 23:39 | 52.82421 | 6.00928 | 37980 ft | 483 kts | 229° |
| 2026-05-04 23:40 | 52.78016 | 5.92530 | 37989 ft | 482 kts | 229° |
| 2026-05-04 23:40 | 52.73622 | 5.84179 | 37994 ft | 483 kts | 230° |
| 2026-05-04 23:41 | 52.69210 | 5.75838 | 37994 ft | 484 kts | 229° |
| 2026-05-04 23:41 | 52.64818 | 5.67555 | 37995 ft | 484 kts | 229° |
| 2026-05-04 23:42 | 52.60371 | 5.59202 | 37987 ft | 484 kts | 229° |
| 2026-05-04 23:42 | 52.55932 | 5.50892 | 37976 ft | 484 kts | 229° |
| 2026-05-04 23:43 | 52.51500 | 5.42625 | 37966 ft | 484 kts | 229° |
| 2026-05-04 23:43 | 52.47073 | 5.34365 | 37967 ft | 483 kts | 229° |
| 2026-05-04 23:44 | 52.42618 | 5.26120 | 37962 ft | 483 kts | 228° |
| 2026-05-04 23:44 | 52.38187 | 5.17938 | 37966 ft | 483 kts | 229° |
| 2026-05-04 23:45 | 52.33901 | 5.09484 | 37906 ft | 483 kts | 239° |
| 2026-05-04 23:45 | 52.32562 | 5.04482 | 37930 ft | 483 kts | 251° |
| 2026-05-04 23:45 | 52.31523 | 4.99254 | 37979 ft | 485 kts | 250° |
| 2026-05-04 23:46 | 52.29328 | 4.88843 | 37987 ft | 488 kts | 251° |
| 2026-05-04 23:46 | 52.27146 | 4.78354 | 37963 ft | 486 kts | 251° |
| 2026-05-04 23:47 | 52.24975 | 4.67943 | 37963 ft | 485 kts | 251° |
| 2026-05-04 23:47 | 52.22780 | 4.57444 | 37973 ft | 485 kts | 251° |
| 2026-05-04 23:48 | 52.20607 | 4.47081 | 37966 ft | 485 kts | 251° |
| 2026-05-04 23:48 | 52.18408 | 4.36657 | 38100 ft | 486 kts | 251° |
| 2026-05-04 23:49 | 52.16215 | 4.26319 | 38027 ft | 488 kts | 250° |
| 2026-05-04 23:49 | 52.14003 | 4.15921 | 37850 ft | 487 kts | 250° |
| 2026-05-04 23:50 | 52.12882 | 4.10680 | 38053 ft | 487 kts | 250° |
| 2026-05-04 23:50 | 52.11769 | 4.05490 | 38039 ft | 487 kts | 250° |
| 2026-05-04 23:50 | 52.09505 | 3.94974 | 37989 ft | 487 kts | 250° |
| 2026-05-04 23:51 | 52.07257 | 3.84559 | 37991 ft | 486 kts | 250° |
| 2026-05-04 23:51 | 52.05004 | 3.74189 | 38000 ft | 486 kts | 250° |
| 2026-05-04 23:52 | 52.02759 | 3.63921 | 37992 ft | 486 kts | 250° |
| 2026-05-04 23:52 | 52.00494 | 3.53608 | 37973 ft | 487 kts | 250° |
| 2026-05-04 23:53 | 51.98989 | 3.42972 | 37814 ft | 489 kts | 262° |
| 2026-05-04 23:53 | 51.97957 | 3.31909 | 37938 ft | 491 kts | 260° |
| 2026-05-04 23:54 | 51.96914 | 3.20976 | 37986 ft | 494 kts | 260° |
| 2026-05-04 23:54 | 51.96088 | 3.09962 | 37977 ft | 493 kts | 263° |
| 2026-05-04 23:55 | 51.95332 | 2.98981 | 37958 ft | 491 kts | 260° |
| 2026-05-04 23:56 | 51.93470 | 2.82747 | 37972 ft | 491 kts | 259° |
| 2026-05-04 23:56 | 51.92218 | 2.71884 | 37969 ft | 492 kts | 259° |
| 2026-05-04 23:57 | 51.90934 | 2.60821 | 37973 ft | 492 kts | 259° |
| 2026-05-04 23:57 | 51.89641 | 2.49791 | 37764 ft | 491 kts | 259° |
| 2026-05-04 23:57 | 51.88985 | 2.44242 | 37306 ft | 488 kts | 259° |
| 2026-05-04 23:58 | 51.88352 | 2.38886 | 36700 ft | 476 kts | 259° |
| 2026-05-04 23:58 | 51.87722 | 2.33560 | 36061 ft | 466 kts | 258° |
| 2026-05-04 23:58 | 51.87108 | 2.28389 | 35546 ft | 458 kts | 258° |
| 2026-05-04 23:58 | 51.86512 | 2.23393 | 34989 ft | 451 kts | 258° |
| 2026-05-04 23:59 | 51.85918 | 2.18438 | 34271 ft | 444 kts | 258° |
| 2026-05-04 23:59 | 51.85341 | 2.13646 | 33512 ft | 438 kts | 258° |
| 2026-05-04 23:59 | 51.84765 | 2.08908 | 32745 ft | 431 kts | 258° |
| 2026-05-04 23:59 | 51.84193 | 2.04213 | 31966 ft | 426 kts | 258° |
| 2026-05-05 00:00 | 51.83623 | 1.99548 | 31177 ft | 421 kts | 258° |
| 2026-05-05 00:00 | 51.83247 | 1.96475 | 30607 ft | 417 kts | 258° |
| 2026-05-05 00:00 | 51.82501 | 1.90397 | 29408 ft | 411 kts | 258° |
| 2026-05-05 00:00 | 51.81787 | 1.86016 | 28477 ft | 406 kts | 249° |
| 2026-05-05 00:01 | 51.80734 | 1.81889 | 27629 ft | 401 kts | 248° |
| 2026-05-05 00:01 | 51.79694 | 1.77733 | 26766 ft | 397 kts | 248° |
| 2026-05-05 00:01 | 51.78670 | 1.73680 | 25900 ft | 393 kts | 248° |
| 2026-05-05 00:01 | 51.77647 | 1.69633 | 25169 ft | 387 kts | 248° |
| 2026-05-05 00:02 | 51.76646 | 1.65677 | 24811 ft | 371 kts | 248° |
| 2026-05-05 00:02 | 51.75687 | 1.61877 | 24576 ft | 362 kts | 248° |
| 2026-05-05 00:02 | 51.74755 | 1.58166 | 24132 ft | 353 kts | 248° |
| 2026-05-05 00:02 | 51.73821 | 1.54434 | 23775 ft | 370 kts | 248° |
| 2026-05-05 00:03 | 51.72858 | 1.50571 | 23295 ft | 378 kts | 248° |
| 2026-05-05 00:03 | 51.71883 | 1.46657 | 22736 ft | 373 kts | 248° |
| 2026-05-05 00:03 | 51.71206 | 1.42705 | 22108 ft | 367 kts | 264° |
| 2026-05-05 00:03 | 51.71088 | 1.38649 | 21553 ft | 359 kts | 267° |
| 2026-05-05 00:04 | 51.70963 | 1.34693 | 20993 ft | 358 kts | 265° |
| 2026-05-05 00:04 | 51.70822 | 1.30719 | 20415 ft | 353 kts | 266° |
| 2026-05-05 00:04 | 51.70689 | 1.26785 | 19837 ft | 353 kts | 266° |
| 2026-05-05 00:04 | 51.70550 | 1.22853 | 19247 ft | 349 kts | 265° |
| 2026-05-05 00:05 | 51.70416 | 1.19029 | 18669 ft | 344 kts | 266° |
| 2026-05-05 00:05 | 51.70275 | 1.15164 | 18086 ft | 340 kts | 266° |
| 2026-05-05 00:05 | 51.70140 | 1.11413 | 17514 ft | 336 kts | 266° |
| 2026-05-05 00:05 | 51.70006 | 1.07698 | 16953 ft | 333 kts | 266° |
| 2026-05-05 00:06 | 51.69868 | 1.03988 | 16395 ft | 329 kts | 266° |
| 2026-05-05 00:06 | 51.69735 | 1.00352 | 16049 ft | 327 kts | 266° |
| 2026-05-05 00:06 | 51.69598 | 0.96710 | 15871 ft | 325 kts | 266° |
| 2026-05-05 00:06 | 51.69462 | 0.93058 | 15694 ft | 329 kts | 266° |
| 2026-05-05 00:07 | 51.69323 | 0.89369 | 15365 ft | 332 kts | 266° |
| 2026-05-05 00:07 | 51.69179 | 0.85704 | 14979 ft | 324 kts | 266° |
| 2026-05-05 00:07 | 51.69039 | 0.82143 | 14587 ft | 316 kts | 266° |
| 2026-05-05 00:07 | 51.68904 | 0.78688 | 14208 ft | 309 kts | 267° |
| 2026-05-05 00:08 | 51.68768 | 0.75273 | 13826 ft | 302 kts | 267° |
| 2026-05-05 00:08 | 51.68647 | 0.71956 | 13443 ft | 298 kts | 267° |
| 2026-05-05 00:08 | 51.68530 | 0.68607 | 13056 ft | 299 kts | 266° |
| 2026-05-05 00:08 | 51.68333 | 0.65293 | 12629 ft | 299 kts | 263° |
| 2026-05-05 00:09 | 51.68076 | 0.62004 | 12209 ft | 296 kts | 264° |
| 2026-05-05 00:09 | 51.67834 | 0.58703 | 11776 ft | 293 kts | 264° |
| 2026-05-05 00:09 | 51.67581 | 0.55487 | 11358 ft | 293 kts | 260° |
| 2026-05-05 00:09 | 51.66950 | 0.52420 | 10919 ft | 290 kts | 251° |
| 2026-05-05 00:10 | 51.66572 | 0.49264 | 10490 ft | 288 kts | 266° |
| 2026-05-05 00:10 | 51.66433 | 0.46043 | 10063 ft | 286 kts | 266° |
| 2026-05-05 00:10 | 51.66282 | 0.42875 | 9648 ft | 283 kts | 266° |
| 2026-05-05 00:10 | 51.66143 | 0.39759 | 9236 ft | 283 kts | 266° |
| 2026-05-05 00:11 | 51.65996 | 0.36592 | 8807 ft | 285 kts | 266° |
| 2026-05-05 00:11 | 51.65845 | 0.33424 | 8404 ft | 281 kts | 266° |
| 2026-05-05 00:11 | 51.65699 | 0.30381 | 8181 ft | 271 kts | 266° |
| 2026-05-05 00:11 | 51.65551 | 0.27437 | 8053 ft | 258 kts | 266° |
| 2026-05-05 00:12 | 51.65408 | 0.24614 | 7941 ft | 245 kts | 266° |
| 2026-05-05 00:12 | 51.65270 | 0.21941 | 7913 ft | 240 kts | 266° |
| 2026-05-05 00:12 | 51.65126 | 0.19244 | 7967 ft | 243 kts | 266° |
| 2026-05-05 00:12 | 51.64973 | 0.16532 | 7996 ft | 245 kts | 264° |
| 2026-05-05 00:13 | 51.64750 | 0.13803 | 7983 ft | 245 kts | 265° |
| 2026-05-05 00:13 | 51.64607 | 0.11063 | 7979 ft | 245 kts | 266° |
| 2026-05-05 00:13 | 51.64455 | 0.08334 | 8002 ft | 246 kts | 266° |
| 2026-05-05 00:13 | 51.64310 | 0.05611 | 8008 ft | 246 kts | 266° |
| 2026-05-05 00:14 | 51.64168 | 0.02888 | 8008 ft | 246 kts | 266° |
| 2026-05-05 00:14 | 51.64027 | 0.00120 | 8020 ft | 247 kts | 266° |
| 2026-05-05 00:14 | 51.63889 | -0.02603 | 8016 ft | 247 kts | 266° |
| 2026-05-05 00:14 | 51.63750 | -0.05362 | 8025 ft | 247 kts | 266° |
| 2026-05-05 00:15 | 51.63610 | -0.08111 | 8020 ft | 247 kts | 266° |
| 2026-05-05 00:15 | 51.63469 | -0.10840 | 8002 ft | 246 kts | 266° |
| 2026-05-05 00:15 | 51.63327 | -0.13599 | 7943 ft | 248 kts | 266° |
| 2026-05-05 00:15 | 51.63184 | -0.16393 | 7705 ft | 251 kts | 266° |
| 2026-05-05 00:16 | 51.63038 | -0.19167 | 7414 ft | 247 kts | 266° |
| 2026-05-05 00:16 | 51.62888 | -0.21882 | 7182 ft | 241 kts | 266° |
| 2026-05-05 00:16 | 51.62736 | -0.24497 | 7070 ft | 237 kts | 266° |
| 2026-05-05 00:16 | 51.62578 | -0.27183 | 7046 ft | 240 kts | 266° |
| 2026-05-05 00:17 | 51.62418 | -0.29833 | 7044 ft | 242 kts | 266° |
| 2026-05-05 00:17 | 51.62259 | -0.32541 | 7048 ft | 244 kts | 266° |
| 2026-05-05 00:17 | 51.62103 | -0.35272 | 7046 ft | 244 kts | 266° |
| 2026-05-05 00:17 | 51.61948 | -0.38001 | 7038 ft | 244 kts | 266° |
| 2026-05-05 00:18 | 51.61789 | -0.40717 | 7026 ft | 244 kts | 266° |
| 2026-05-05 00:18 | 51.61634 | -0.43427 | 7015 ft | 243 kts | 266° |
| 2026-05-05 00:18 | 51.61481 | -0.46099 | 7007 ft | 243 kts | 266° |
| 2026-05-05 00:18 | 51.61323 | -0.48815 | 7003 ft | 243 kts | 266° |
| 2026-05-05 00:19 | 51.61163 | -0.51521 | 7002 ft | 242 kts | 266° |
| 2026-05-05 00:19 | 51.61006 | -0.54178 | 7003 ft | 242 kts | 266° |
| 2026-05-05 00:19 | 51.60846 | -0.56882 | 7005 ft | 242 kts | 266° |
| 2026-05-05 00:19 | 51.60683 | -0.59564 | 7006 ft | 243 kts | 266° |
| 2026-05-05 00:20 | 51.60515 | -0.62311 | 6832 ft | 248 kts | 266° |
| 2026-05-05 00:20 | 51.60350 | -0.65032 | 6611 ft | 246 kts | 265° |
| 2026-05-05 00:20 | 51.60183 | -0.67770 | 6398 ft | 243 kts | 265° |
| 2026-05-05 00:20 | 51.60019 | -0.70458 | 6154 ft | 241 kts | 266° |
| 2026-05-05 00:21 | 51.59855 | -0.73109 | 5901 ft | 240 kts | 265° |
| 2026-05-05 00:21 | 51.59689 | -0.75764 | 5641 ft | 240 kts | 265° |
| 2026-05-05 00:21 | 51.59510 | -0.78444 | 5388 ft | 239 kts | 260° |
| 2026-05-05 00:21 | 51.58839 | -0.80849 | 5081 ft | 240 kts | 229° |
| 2026-05-05 00:22 | 51.57507 | -0.82354 | 4812 ft | 238 kts | 198° |
| 2026-05-05 00:22 | 51.55880 | -0.82694 | 4568 ft | 233 kts | 180° |
| 2026-05-05 00:22 | 51.54279 | -0.82719 | 4316 ft | 232 kts | 181° |
| 2026-05-05 00:22 | 51.52680 | -0.82770 | 4142 ft | 230 kts | 180° |
| 2026-05-05 00:23 | 51.51087 | -0.82526 | 4018 ft | 229 kts | 156° |
| 2026-05-05 00:23 | 51.49826 | -0.81100 | 4003 ft | 226 kts | 125° |
| 2026-05-05 00:23 | 51.48930 | -0.78997 | 3983 ft | 228 kts | 120° |
| 2026-05-05 00:23 | 51.48076 | -0.76866 | 3759 ft | 231 kts | 121° |
| 2026-05-05 00:24 | 51.47277 | -0.74696 | 3458 ft | 224 kts | 107° |
| 2026-05-05 00:24 | 51.47168 | -0.72275 | 3074 ft | 216 kts | 76° |
| 2026-05-05 00:24 | 51.47512 | -0.69987 | 2806 ft | 212 kts | 77° |
| 2026-05-05 00:24 | 51.47643 | -0.67652 | 2540 ft | 209 kts | 86° |
| 2026-05-05 00:25 | 51.47649 | -0.65334 | 2243 ft | 207 kts | 87° |
| 2026-05-05 00:25 | 51.47630 | -0.63082 | 2027 ft | 201 kts | 87° |
| 2026-05-05 00:25 | 51.47624 | -0.60863 | 1769 ft | 196 kts | 86° |
| 2026-05-05 00:25 | 51.47667 | -0.58698 | 1465 ft | 193 kts | 85° |
| 2026-05-05 00:26 | 51.47706 | -0.56649 | 1194 ft | 177 kts | 85° |
| 2026-05-05 00:26 | 51.47722 | -0.54739 | 899 ft | 165 kts | 88° |
| 2026-05-05 00:26 | 51.47730 | -0.52961 | 569 ft | 157 kts | 87° |
| 2026-05-05 00:26 | 51.47750 | -0.51305 | 355 ft | 143 kts | 86° |
| 2026-05-05 00:27 | 51.47758 | -0.49716 | 176 ft | 143 kts | 88° |
| 2026-05-05 00:27 | 51.47753 | -0.48112 | 105 ft | 140 kts | 89° |
| 2026-05-05 00:27 | 51.47758 | -0.46680 | 89 ft | 111 kts | 89° |
| 2026-05-05 00:27 | 51.47678 | -0.46114 | 85 ft | 24 kts | 140° |
| 2026-05-05 00:28 | 51.47633 | -0.46071 | 85 ft | 0 kts | 165° |
| 2026-05-05 00:28 | 51.47631 | -0.46070 | 85 ft | 0 kts | 168° |
| 2026-05-05 00:29 | 51.47625 | -0.46070 | 85 ft | 4 kts | 189° |
| 2026-05-05 00:30 | 51.47599 | -0.46126 | 85 ft | 0 kts | 255° |
| 2026-05-05 00:30 | 51.47599 | -0.46127 | 85 ft | 0 kts | 255° |
| 2026-05-05 00:30 | 51.47599 | -0.46132 | 85 ft | 3 kts | 255° |
| 2026-05-05 00:30 | 51.47593 | -0.46288 | 84 ft | 15 kts | 270° |
| 2026-05-05 00:31 | 51.47592 | -0.46443 | 86 ft | 12 kts | 267° |
| 2026-05-05 00:31 | 51.47590 | -0.46585 | 86 ft | 12 kts | 270° |
| 2026-05-05 00:31 | 51.47591 | -0.46711 | 86 ft | 10 kts | 270° |
| 2026-05-05 00:31 | 51.47584 | -0.46841 | 86 ft | 14 kts | 256° |
| 2026-05-05 00:32 | 51.47507 | -0.46926 | 84 ft | 15 kts | 167° |
| 2026-05-05 00:32 | 51.47411 | -0.46883 | 82 ft | 14 kts | 164° |
| 2026-05-05 00:32 | 51.47315 | -0.46868 | 82 ft | 13 kts | 179° |
| 2026-05-05 00:32 | 51.47230 | -0.46865 | 82 ft | 11 kts | 179° |
| 2026-05-05 00:33 | 51.47157 | -0.46863 | 81 ft | 9 kts | 179° |
| 2026-05-05 00:33 | 51.47096 | -0.46864 | 82 ft | 7 kts | 183° |
| 2026-05-05 00:33 | 51.47067 | -0.46900 | 82 ft | 3 kts | 238° |
| 2026-05-05 00:33 | 51.47060 | -0.46918 | 83 ft | 2 kts | 242° |
| 2026-05-05 00:34 | 51.47056 | -0.46933 | 83 ft | 0 kts | 250° |
| 2026-05-05 00:34 | 51.47055 | -0.46944 | 83 ft | 4 kts | 264° |
| 2026-05-05 00:35 | 51.47054 | -0.46980 | 84 ft | 2 kts | 268° |
| 2026-05-05 00:35 | 51.47054 | -0.47002 | 84 ft | 2 kts | 269° |
| 2026-05-05 00:35 | 51.47054 | -0.47008 | 84 ft | 0 kts | 269° |